createdAt,value
2023-01-29T00:01:23.181Z,102671.00
2023-01-29T00:03:52.599Z,102670.91
2023-01-29T00:06:18.999Z,102666.47
2023-01-29T00:08:46.621Z,102667.34
2023-01-29T00:11:13.474Z,102661.25
2023-01-29T00:13:39.971Z,102658.66
2023-01-29T00:16:06.675Z,102655.31
2023-01-29T00:18:33.014Z,102659.56
2023-01-29T00:20:59.386Z,102656.97
2023-01-29T00:23:25.994Z,102648.22
2023-01-29T00:25:52.319Z,102642.88
2023-01-29T00:28:18.664Z,102649.88
2023-01-29T00:30:45.021Z,102654.19
2023-01-29T00:33:13.282Z,102654.16
2023-01-29T00:35:40.872Z,102648.91
2023-01-29T00:38:07.340Z,102648.91
2023-01-29T00:40:56.283Z,102642.78
2023-01-29T00:43:41.308Z,102639.22
2023-01-29T00:46:07.992Z,102635.69
2023-01-29T00:48:34.955Z,102641.78
2023-01-29T00:51:02.286Z,102646.97
2023-01-29T00:53:29.018Z,102651.34
2023-01-29T00:55:56.839Z,102647.75
2023-01-29T00:58:28.051Z,102647.75
2023-01-29T01:00:55.877Z,102652.16
2023-01-29T01:03:22.289Z,102657.44
2023-01-29T01:05:48.750Z,102648.84
2023-01-29T01:08:33.695Z,102653.94
2023-01-29T01:11:06.291Z,102656.47
2023-01-29T01:13:34.398Z,102650.25
2023-01-29T01:16:01.314Z,102644.88
2023-01-29T01:18:31.238Z,102637.00
2023-01-29T01:20:59.410Z,102636.94
2023-01-29T01:23:25.883Z,102619.44
2023-01-29T01:25:52.233Z,102618.41
2023-01-29T01:28:18.573Z,102611.28
2023-01-29T01:30:44.969Z,102605.13
2023-01-29T01:33:11.320Z,102609.59
2023-01-29T01:35:39.038Z,102603.53
2023-01-29T01:38:05.427Z,102617.56
2023-01-29T01:40:32.212Z,102609.88
2023-01-29T01:43:00.402Z,102614.34
2023-01-29T01:45:30.976Z,102607.41
2023-01-29T01:48:06.462Z,102611.06
2023-01-29T01:50:46.613Z,102616.50
2023-01-29T01:53:16.849Z,102620.06
2023-01-29T01:55:50.480Z,102622.81
2023-01-29T01:58:27.825Z,102623.63
2023-01-29T02:00:55.303Z,102617.41
2023-01-29T02:03:42.800Z,102615.63
2023-01-29T02:06:29.464Z,102619.94
2023-01-29T02:09:20.872Z,102620.84
2023-01-29T02:11:47.195Z,102626.19
2023-01-29T02:14:14.042Z,102619.28
2023-01-29T02:16:40.388Z,102617.50
2023-01-29T02:19:19.132Z,102612.44
2023-01-29T02:22:13.415Z,102621.09
2023-01-29T02:24:50.923Z,102629.84
2023-01-29T02:27:48.582Z,102623.75
2023-01-29T02:30:30.319Z,102624.66
2023-01-29T02:33:07.456Z,102631.53
2023-01-29T02:35:46.474Z,102634.16
2023-01-29T02:38:32.853Z,102630.00
2023-01-29T02:41:11.556Z,102623.00
2023-01-29T02:43:55.492Z,102617.66
2023-01-29T02:46:51.098Z,102608.88
2023-01-29T02:49:20.408Z,102617.75
2023-01-29T02:51:55.338Z,102613.50
2023-01-29T02:54:34.046Z,102612.75
2023-01-29T02:57:14.629Z,102618.84
2023-01-29T02:59:48.194Z,102625.06
2023-01-29T03:02:20.603Z,102626.94
2023-01-29T03:04:54.845Z,102627.78
2023-01-29T03:07:44.585Z,102629.47
2023-01-29T03:10:21.533Z,102623.19
2023-01-29T03:12:55.527Z,102615.22
2023-01-29T03:15:31.802Z,102610.75
2023-01-29T03:18:18.807Z,102617.69
2023-01-29T03:20:53.538Z,102626.53
2023-01-29T03:23:47.702Z,102638.06
2023-01-29T03:26:40.182Z,102636.38
2023-01-29T03:29:28.202Z,102643.28
2023-01-29T03:32:09.270Z,102645.03
2023-01-29T03:34:46.452Z,102632.69
2023-01-29T03:37:24.018Z,102633.50
2023-01-29T03:39:50.561Z,102632.59
2023-01-29T03:42:48.805Z,102633.63
2023-01-29T03:45:42.683Z,102627.69
2023-01-29T03:48:30.989Z,102635.50
2023-01-29T03:51:13.227Z,102628.47
2023-01-29T03:53:54.845Z,102623.19
2023-01-29T03:57:02.672Z,102626.59
2023-01-29T03:59:45.185Z,102624.91
2023-01-29T04:02:52.675Z,102631.97
2023-01-29T04:05:22.648Z,102628.56
2023-01-29T04:08:15.110Z,102620.03
2023-01-29T04:10:44.879Z,102612.19
2023-01-29T04:13:15.599Z,102607.75
2023-01-29T04:15:50.172Z,102597.28
2023-01-29T04:18:19.506Z,102593.91
2023-01-29T04:21:09.564Z,102587.78
2023-01-29T04:23:35.888Z,102577.34
2023-01-29T04:26:13.417Z,102580.03
2023-01-29T04:29:09.586Z,102579.25
2023-01-29T04:31:47.785Z,102581.94
2023-01-29T04:34:53.892Z,102597.81
2023-01-29T04:37:32.597Z,102583.88
2023-01-29T04:40:21.019Z,102581.31
2023-01-29T04:42:54.971Z,102581.38
2023-01-29T04:45:39.597Z,102576.19
2023-01-29T04:48:26.320Z,102568.28
2023-01-29T04:51:04.707Z,102564.81
2023-01-29T04:53:45.384Z,102557.84
2023-01-29T04:56:19.202Z,102558.72
2023-01-29T04:58:54.964Z,102563.19
2023-01-29T05:01:25.587Z,102559.69
2023-01-29T05:03:55.124Z,102553.56
2023-01-29T05:06:22.966Z,102551.88
2023-01-29T05:08:51.078Z,102551.88
2023-01-29T05:11:19.628Z,102530.91
2023-01-29T05:13:48.801Z,102530.03
2023-01-29T05:16:22.391Z,102529.19
2023-01-29T05:18:49.012Z,102528.34
2023-01-29T05:21:15.883Z,102524.91
2023-01-29T05:23:52.942Z,102525.78
2023-01-29T05:26:39.722Z,102520.56
2023-01-29T05:29:06.128Z,102521.41
2023-01-29T05:31:32.517Z,102514.41
2023-01-29T05:33:58.981Z,102524.13
2023-01-29T05:36:26.690Z,102520.59
2023-01-29T05:38:53.021Z,102522.41
2023-01-29T05:41:20.927Z,102515.38
2023-01-29T05:43:47.313Z,102518.03
2023-01-29T05:46:13.692Z,102523.28
2023-01-29T05:48:40.070Z,102521.53
2023-01-29T05:51:06.473Z,102534.66
2023-01-29T05:53:33.051Z,102539.06
2023-01-29T05:56:03.947Z,102540.00
2023-01-29T05:58:31.976Z,102542.59
2023-01-29T06:00:58.404Z,102546.94
2023-01-29T06:03:25.005Z,102548.75
2023-01-29T06:05:52.907Z,102549.69
2023-01-29T06:08:19.322Z,102551.44
2023-01-29T06:10:45.650Z,102555.03
2023-01-29T06:13:11.967Z,102566.38
2023-01-29T06:15:40.846Z,102562.75
2023-01-29T06:18:07.228Z,102561.91
2023-01-29T06:20:33.706Z,102567.16
2023-01-29T06:23:00.251Z,102568.97
2023-01-29T06:25:26.663Z,102574.16
2023-01-29T06:27:53.053Z,102577.69
2023-01-29T06:30:19.825Z,102568.09
2023-01-29T06:32:46.260Z,102554.06
2023-01-29T06:35:12.722Z,102543.59
2023-01-29T06:37:39.036Z,102536.59
2023-01-29T06:40:06.063Z,102538.34
2023-01-29T06:42:35.310Z,102542.72
2023-01-29T06:45:01.650Z,102551.50
2023-01-29T06:47:27.990Z,102550.66
2023-01-29T06:49:54.311Z,102558.59
2023-01-29T06:52:20.708Z,102552.47
2023-01-29T06:54:47.273Z,102549.75
2023-01-29T06:57:13.721Z,102548.06
2023-01-29T06:59:40.057Z,102545.50
2023-01-29T07:02:06.791Z,102551.63
2023-01-29T07:04:33.112Z,102541.97
2023-01-29T07:07:00.009Z,102545.47
2023-01-29T07:09:26.350Z,102546.41
2023-01-29T07:11:52.665Z,102551.66
2023-01-29T07:14:18.972Z,102559.63
2023-01-29T07:16:45.300Z,102549.09
2023-01-29T07:19:11.722Z,102542.09
2023-01-29T07:21:38.050Z,102540.31
2023-01-29T07:24:04.802Z,102557.84
2023-01-29T07:26:31.167Z,102542.97
2023-01-29T07:28:57.513Z,102543.84
2023-01-29T07:31:23.905Z,102544.69
2023-01-29T07:33:50.266Z,102564.03
2023-01-29T07:36:16.682Z,102559.66
2023-01-29T07:38:43.254Z,102559.66
2023-01-29T07:41:11.656Z,102558.75
2023-01-29T07:43:37.997Z,102548.25
2023-01-29T07:46:04.582Z,102548.31
2023-01-29T07:48:31.130Z,102557.94
2023-01-29T07:50:58.301Z,102549.19
2023-01-29T07:53:25.146Z,102553.56
2023-01-29T07:55:51.545Z,102545.69
2023-01-29T07:58:18.119Z,102548.28
2023-01-29T08:00:45.017Z,102542.16
2023-01-29T08:03:14.038Z,102538.63
2023-01-29T08:05:40.347Z,102541.34
2023-01-29T08:08:07.876Z,102536.94
2023-01-29T08:10:35.629Z,102543.09
2023-01-29T08:13:04.184Z,102541.34
2023-01-29T08:15:31.199Z,102536.06
2023-01-29T08:20:44.147Z,102527.34
2023-01-29T08:23:14.738Z,102522.94
2023-01-29T08:25:41.511Z,102528.19
2023-01-29T08:28:08.637Z,102528.16
2023-01-29T08:30:35.638Z,102529.94
2023-01-29T08:33:04.292Z,102526.47
2023-01-29T08:35:30.854Z,102520.31
2023-01-29T08:37:59.599Z,102511.56
2023-01-29T08:40:27.503Z,102512.44
2023-01-29T08:43:02.289Z,102504.53
2023-01-29T08:45:30.067Z,102494.03
2023-01-29T08:47:56.630Z,102498.38
2023-01-29T08:50:23.096Z,102496.66
2023-01-29T08:52:49.428Z,102493.16
2023-01-29T08:55:16.056Z,102498.47
2023-01-29T08:57:42.577Z,102505.50
2023-01-29T09:00:10.606Z,102503.75
2023-01-29T09:02:37.752Z,102493.22
2023-01-29T09:05:04.481Z,102496.75
2023-01-29T09:07:30.903Z,102486.19
2023-01-29T09:09:57.398Z,102488.84
2023-01-29T09:12:23.787Z,102491.50
2023-01-29T09:14:50.135Z,102477.47
2023-01-29T09:17:16.478Z,102474.84
2023-01-29T09:19:43.025Z,102474.84
2023-01-29T09:22:11.612Z,102474.84
2023-01-29T09:24:38.247Z,102467.84
2023-01-29T09:27:06.042Z,102453.84
2023-01-29T09:29:35.450Z,102467.88
2023-01-29T09:32:03.152Z,102467.91
2023-01-29T09:34:29.487Z,102461.75
2023-01-29T09:36:55.834Z,102464.38
2023-01-29T09:39:22.152Z,102458.25
2023-01-29T09:41:56.158Z,102465.28
2023-01-29T09:44:40.945Z,102467.94
2023-01-29T09:47:13.754Z,102464.41
2023-01-29T09:49:45.930Z,102466.19
2023-01-29T09:52:18.977Z,102461.81
2023-01-29T09:55:01.586Z,102468.81
2023-01-29T09:57:39.052Z,102466.19
2023-01-29T10:00:06.221Z,102470.59
2023-01-29T10:02:59.098Z,102463.56
2023-01-29T10:05:44.169Z,102459.19
2023-01-29T10:08:29.494Z,102467.09
2023-01-29T10:11:17.505Z,102457.41
2023-01-29T10:13:53.098Z,102466.19
2023-01-29T10:16:49.599Z,102467.97
2023-01-29T10:19:32.743Z,102468.81
2023-01-29T10:22:23.216Z,102474.13
2023-01-29T10:25:19.383Z,102468.00
2023-01-29T10:27:52.333Z,102460.06
2023-01-29T10:30:28.021Z,102453.06
2023-01-29T10:32:57.784Z,102446.91
2023-01-29T10:35:30.764Z,102453.94
2023-01-29T10:38:02.256Z,102452.19
2023-01-29T10:40:34.504Z,102440.75
2023-01-29T10:43:09.238Z,102443.38
2023-01-29T10:45:50.568Z,102438.13
2023-01-29T10:48:35.238Z,102428.47
2023-01-29T10:51:36.869Z,102424.06
2023-01-29T10:54:21.213Z,102417.03
2023-01-29T10:56:56.906Z,102413.50
2023-01-29T10:59:31.411Z,102429.31
2023-01-29T11:01:59.336Z,102416.13
2023-01-29T11:04:28.174Z,102417.91
2023-01-29T11:06:54.558Z,102407.38
2023-01-29T11:09:44.239Z,102404.72
2023-01-29T11:12:16.515Z,102402.97
2023-01-29T11:14:48.691Z,102391.56
2023-01-29T11:17:19.958Z,102389.78
2023-01-29T11:19:48.157Z,102380.13
2023-01-29T11:22:28.069Z,102377.50
2023-01-29T11:25:28.828Z,102382.75
2023-01-29T11:27:57.580Z,102369.59
2023-01-29T11:30:28.122Z,102371.38
2023-01-29T11:33:12.577Z,102367.00
2023-01-29T11:35:38.961Z,102367.00
2023-01-29T11:38:25.800Z,102372.25
2023-01-29T11:40:52.795Z,102363.44
2023-01-29T11:43:30.828Z,102361.72
2023-01-29T11:46:06.227Z,102347.66
2023-01-29T11:48:51.254Z,102346.78
2023-01-29T11:51:29.146Z,102334.44
2023-01-29T11:53:59.049Z,102335.34
2023-01-29T11:56:46.210Z,102330.09
2023-01-29T11:59:37.668Z,102321.28
2023-01-29T12:02:27.949Z,102309.84
2023-01-29T12:04:57.843Z,102299.28
2023-01-29T12:07:24.995Z,102302.78
2023-01-29T12:09:56.837Z,102295.75
2023-01-29T12:12:44.263Z,102287.84
2023-01-29T12:15:16.551Z,102280.78
2023-01-29T12:17:50.700Z,102277.25
2023-01-29T12:20:26.537Z,102263.25
2023-01-29T12:23:09.169Z,102252.66
2023-01-29T12:25:47.752Z,102245.66
2023-01-29T12:28:44.491Z,102244.66
2023-01-29T12:31:22.729Z,102233.22
2023-01-29T12:34:04.349Z,102228.75
2023-01-29T12:37:15.629Z,102237.53
2023-01-29T12:39:42.090Z,102229.59
2023-01-29T12:42:19.016Z,102224.31
2023-01-29T12:44:51.030Z,102220.75
2023-01-29T12:47:31.192Z,102216.31
2023-01-29T12:50:03.066Z,102219.88
2023-01-29T12:52:47.440Z,102216.41
2023-01-29T12:55:33.959Z,102209.41
2023-01-29T12:58:04.053Z,102211.13
2023-01-29T13:00:37.047Z,102202.31
2023-01-29T13:03:30.471Z,102193.59
2023-01-29T13:06:05.601Z,102195.31
2023-01-29T13:08:49.473Z,102192.63
2023-01-29T13:11:25.229Z,102185.59
2023-01-29T13:14:04.308Z,102185.66
2023-01-29T13:16:38.298Z,102183.00
2023-01-29T13:19:32.891Z,102175.03
2023-01-29T13:22:02.628Z,102178.50
2023-01-29T13:24:40.414Z,102179.38
2023-01-29T13:27:07.652Z,102183.72
2023-01-29T13:29:34.300Z,102177.56
2023-01-29T13:32:03.428Z,102173.19
2023-01-29T13:34:32.889Z,102171.41
2023-01-29T13:37:02.795Z,102180.25
2023-01-29T13:39:44.539Z,102167.88
2023-01-29T13:42:18.473Z,102174.88
2023-01-29T13:44:54.848Z,102181.06
2023-01-29T13:47:26.508Z,102176.66
2023-01-29T13:50:02.100Z,102172.38
2023-01-29T13:52:44.420Z,102171.53
2023-01-29T13:55:13.887Z,102174.22
2023-01-29T13:57:46.167Z,102172.47
2023-01-29T14:00:21.473Z,102170.63
2023-01-29T14:02:59.839Z,102163.59
2023-01-29T14:05:29.164Z,102155.72
2023-01-29T14:08:14.854Z,102159.22
2023-01-29T14:10:42.898Z,102154.84
2023-01-29T14:13:18.238Z,102146.06
2023-01-29T14:15:46.447Z,102152.16
2023-01-29T14:18:25.129Z,102147.72
2023-01-29T14:20:56.014Z,102145.94
2023-01-29T14:23:30.695Z,102150.44
2023-01-29T14:25:59.855Z,102148.66
2023-01-29T14:28:29.136Z,102139.81
2023-01-29T14:30:55.944Z,102136.28
2023-01-29T14:33:27.914Z,102135.38
2023-01-29T14:35:56.653Z,102127.53
2023-01-29T14:38:26.094Z,102133.66
2023-01-29T14:41:04.322Z,102134.44
2023-01-29T14:43:30.699Z,102130.91
2023-01-29T14:46:35.220Z,102128.28
2023-01-29T14:49:02.470Z,102121.22
2023-01-29T14:51:36.394Z,102124.75
2023-01-29T14:54:13.822Z,102120.34
2023-01-29T14:56:46.217Z,102119.47
2023-01-29T14:59:30.533Z,102127.31
2023-01-29T15:02:05.329Z,102118.50
2023-01-29T15:04:42.947Z,102114.97
2023-01-29T15:07:09.244Z,102114.16
2023-01-29T15:09:46.174Z,102107.16
2023-01-29T15:12:34.214Z,102108.94
2023-01-29T15:15:07.864Z,102111.56
2023-01-29T15:17:47.512Z,102104.53
2023-01-29T15:20:35.596Z,102093.09
2023-01-29T15:23:06.029Z,102101.03
2023-01-29T15:25:36.986Z,102101.03
2023-01-29T15:28:08.503Z,102101.03
2023-01-29T15:30:36.155Z,102103.56
2023-01-29T15:33:03.599Z,102104.53
2023-01-29T15:35:41.777Z,102094.78
2023-01-29T15:38:18.644Z,102097.44
2023-01-29T15:40:53.525Z,102092.09
2023-01-29T15:43:34.549Z,102090.38
2023-01-29T15:46:10.402Z,102088.59
2023-01-29T15:48:40.895Z,102094.69
2023-01-29T15:51:17.053Z,102099.00
2023-01-29T15:53:51.978Z,102090.28
2023-01-29T15:56:27.911Z,102077.16
2023-01-29T15:58:57.047Z,102074.59
2023-01-29T16:01:27.030Z,102072.78
2023-01-29T16:03:54.545Z,102066.69
2023-01-29T16:06:23.166Z,102062.22
2023-01-29T16:08:53.162Z,102048.16
2023-01-29T16:11:20.805Z,102051.72
2023-01-29T16:13:49.818Z,102048.22
2023-01-29T16:16:16.201Z,102038.53
2023-01-29T16:18:57.792Z,102047.34
2023-01-29T16:21:35.543Z,102046.34
2023-01-29T16:24:09.940Z,102052.47
2023-01-29T16:26:42.207Z,102040.09
2023-01-29T16:29:14.776Z,102031.31
2023-01-29T16:31:44.502Z,102026.09
2023-01-29T16:34:20.453Z,102032.22
2023-01-29T16:36:48.324Z,102022.56
2023-01-29T16:39:28.660Z,102028.72
2023-01-29T16:42:17.071Z,102020.72
2023-01-29T16:44:52.558Z,102022.53
2023-01-29T16:47:31.311Z,102021.56
2023-01-29T16:50:02.330Z,102020.69
2023-01-29T16:52:33.693Z,102017.16
2023-01-29T16:55:12.139Z,102020.69
2023-01-29T16:57:40.352Z,102011.88
2023-01-29T17:00:17.341Z,102014.41
2023-01-29T17:02:43.863Z,102002.22
2023-01-29T17:05:22.733Z,102002.22
2023-01-29T17:07:49.493Z,102005.63
2023-01-29T17:10:21.196Z,101998.59
2023-01-29T17:13:01.948Z,102000.28
2023-01-29T17:15:35.347Z,101998.47
2023-01-29T17:18:02.284Z,101988.81
2023-01-29T17:20:30.506Z,101994.88
2023-01-29T17:22:56.817Z,101994.03
2023-01-29T17:25:23.681Z,101991.31
2023-01-29T17:27:52.068Z,101996.59
2023-01-29T17:30:21.318Z,101982.41
2023-01-29T17:32:48.003Z,101986.81
2023-01-29T17:35:16.241Z,101983.16
2023-01-29T17:37:44.176Z,101977.13
2023-01-29T17:40:27.108Z,101978.84
2023-01-29T17:42:53.473Z,101988.44
2023-01-29T17:45:20.134Z,101979.63
2023-01-29T17:47:46.570Z,101979.66
2023-01-29T17:50:21.026Z,101981.38
2023-01-29T17:52:47.403Z,101975.22
2023-01-29T17:55:13.826Z,101970.00
2023-01-29T17:57:40.258Z,101960.25
2023-01-29T18:00:24.927Z,101955.81
2023-01-29T18:02:51.794Z,101946.97
2023-01-29T18:05:18.788Z,101945.19
2023-01-29T18:07:46.780Z,101933.78
2023-01-29T18:10:16.652Z,101921.41
2023-01-29T18:12:43.347Z,101919.63
2023-01-29T18:15:10.610Z,101931.97
2023-01-29T18:17:37.579Z,101934.56
2023-01-29T18:20:22.116Z,101931.97
2023-01-29T18:22:48.620Z,101934.59
2023-01-29T18:25:16.278Z,101931.75
2023-01-29T18:27:43.076Z,101920.97
2023-01-29T18:30:10.161Z,101922.69
2023-01-29T18:32:36.646Z,101925.25
2023-01-29T18:35:03.694Z,101934.03
2023-01-29T18:37:30.134Z,101918.09
2023-01-29T18:39:56.499Z,101916.31
2023-01-29T18:42:22.962Z,101907.47
2023-01-29T18:44:49.281Z,101903.16
2023-01-29T18:47:16.362Z,101895.31
2023-01-29T18:49:42.732Z,101892.81
2023-01-29T18:52:09.207Z,101888.31
2023-01-29T18:54:35.548Z,101892.69
2023-01-29T18:57:08.608Z,101878.66
2023-01-29T18:59:40.733Z,101878.69
2023-01-29T19:02:07.793Z,101882.31
2023-01-29T19:04:34.168Z,101877.78
2023-01-29T19:07:00.498Z,101872.50
2023-01-29T19:09:27.083Z,101868.97
2023-01-29T19:11:53.513Z,101858.63
2023-01-29T19:14:19.902Z,101861.91
2023-01-29T19:16:46.428Z,101857.69
2023-01-29T19:19:12.865Z,101854.06
2023-01-29T19:21:39.275Z,101851.44
2023-01-29T19:24:06.246Z,101846.97
2023-01-29T19:26:33.993Z,101844.31
2023-01-29T19:29:01.434Z,101837.25
2023-01-29T19:31:31.816Z,101828.56
2023-01-29T19:33:58.739Z,101819.81
2023-01-29T19:36:25.629Z,101824.00
2023-01-29T19:38:52.010Z,101810.78
2023-01-29T19:41:18.769Z,101816.06
2023-01-29T19:43:46.204Z,101810.84
2023-01-29T19:46:12.541Z,101809.16
2023-01-29T19:48:38.913Z,101803.97
2023-01-29T19:51:11.183Z,101796.88
2023-01-29T19:53:38.812Z,101782.72
2023-01-29T19:56:11.346Z,101795.13
2023-01-29T19:58:38.042Z,101775.78
2023-01-29T20:01:07.297Z,101773.09
2023-01-29T20:03:34.357Z,101771.22
2023-01-29T20:06:05.825Z,101766.88
2023-01-29T20:08:34.799Z,101765.25
2023-01-29T20:11:01.620Z,101748.47
2023-01-29T20:13:28.446Z,101746.69
2023-01-29T20:15:55.477Z,101739.59
2023-01-29T20:18:21.892Z,101742.28
2023-01-29T20:20:50.543Z,101743.06
2023-01-29T20:23:35.251Z,101735.97
2023-01-29T20:26:04.133Z,101728.00
2023-01-29T20:28:30.525Z,101713.25
2023-01-29T20:30:58.092Z,101706.09
2023-01-29T20:33:25.602Z,101693.91
2023-01-29T20:35:57.080Z,101689.63
2023-01-29T20:38:25.487Z,101695.59
2023-01-29T20:40:51.807Z,101708.84
2023-01-29T20:43:18.217Z,101704.47
2023-01-29T20:45:44.826Z,101705.13
2023-01-29T20:48:11.245Z,101700.69
2023-01-29T20:50:37.581Z,101704.16
2023-01-29T20:53:04.086Z,101702.31
2023-01-29T20:55:31.465Z,101696.06
2023-01-29T20:58:06.130Z,101695.19
2023-01-29T21:00:33.367Z,101701.28
2023-01-29T21:02:59.934Z,101721.50
2023-01-29T21:05:26.321Z,101722.50
2023-01-29T21:07:52.759Z,101711.00
2023-01-29T21:10:19.480Z,101714.50
2023-01-29T21:12:46.060Z,101694.13
2023-01-29T21:15:12.527Z,101687.06
2023-01-29T21:17:38.933Z,101672.19
2023-01-29T21:20:07.697Z,101666.75
2023-01-29T21:22:34.201Z,101656.25
2023-01-29T21:25:00.583Z,101659.75
2023-01-29T21:27:27.144Z,101676.34
2023-01-29T21:29:53.524Z,101691.34
2023-01-29T21:32:20.909Z,101715.91
2023-01-29T21:34:47.273Z,101701.97
2023-01-29T21:37:13.664Z,101688.84
2023-01-29T21:39:40.060Z,101701.97
2023-01-29T21:42:24.969Z,101690.59
2023-01-29T21:44:51.331Z,101710.91
2023-01-29T21:47:17.727Z,101709.22
2023-01-29T21:49:44.796Z,101713.63
2023-01-29T21:52:12.641Z,101713.53
2023-01-29T21:54:40.098Z,101713.69
2023-01-29T21:57:10.904Z,101703.00
2023-01-29T21:59:37.297Z,101685.06
2023-01-29T22:02:04.003Z,101688.56
2023-01-29T22:04:30.472Z,101680.59
2023-01-29T22:06:57.307Z,101677.78
2023-01-29T22:09:23.987Z,101693.91
2023-01-29T22:11:50.501Z,101689.69
2023-01-29T22:14:19.592Z,101685.25
2023-01-29T22:16:46.205Z,101682.69
2023-01-29T22:19:13.556Z,101683.25
2023-01-29T22:21:39.989Z,101670.91
2023-01-29T22:24:06.904Z,101670.06
2023-01-29T22:26:33.529Z,101670.75
2023-01-29T22:28:59.962Z,101672.47
2023-01-29T22:31:26.343Z,101669.84
2023-01-29T22:33:53.382Z,101668.06
2023-01-29T22:36:19.894Z,101679.47
2023-01-29T22:38:46.986Z,101681.38
2023-01-29T22:41:13.703Z,101669.06
2023-01-29T22:43:41.000Z,101645.19
2023-01-29T22:46:08.495Z,101637.09
2023-01-29T22:48:35.531Z,101635.16
2023-01-29T22:51:11.236Z,101612.84
2023-01-29T22:53:48.251Z,101604.78
2023-01-29T22:56:15.354Z,101578.34
2023-01-29T22:58:42.062Z,101567.59
2023-01-29T23:01:08.992Z,101555.19
2023-01-29T23:03:35.690Z,101540.97
2023-01-29T23:06:03.684Z,101540.09
2023-01-29T23:08:32.941Z,101533.13
2023-01-29T23:11:13.678Z,101496.25
2023-01-29T23:13:45.103Z,101481.53
2023-01-29T23:16:12.557Z,101490.28
2023-01-29T23:18:39.491Z,101510.34
2023-01-29T23:21:05.873Z,101548.03
2023-01-29T23:23:34.443Z,101547.44
2023-01-29T23:26:20.950Z,101538.69
2023-01-29T23:28:47.811Z,101529.16
2023-01-29T23:31:14.749Z,101529.88
2023-01-29T23:33:41.329Z,101522.66
2023-01-29T23:36:08.185Z,101515.59
2023-01-29T23:38:34.705Z,101512.69
2023-01-29T23:41:01.137Z,101501.03
2023-01-29T23:43:28.405Z,101497.63
2023-01-29T23:45:55.502Z,101491.41
2023-01-29T23:48:22.521Z,101482.41
2023-01-29T23:50:49.363Z,101461.19
2023-01-29T23:53:16.470Z,101465.44
2023-01-29T23:55:44.549Z,101474.28
2023-01-29T23:58:10.918Z,101474.22
